Skip Navigation Links
NOAA logo - Click to go to the NOAA homepage
NOAA's National Weather Service
Alaska Aviation Weather Unit
  NWS logo - Click to go to the NWS homepage
Left Navbar Graphic     23 AKDT = 07 GMT

   
NOAA is celebrating 200 years of science, service, and stewardship. Visit the NOAA 200th celebration Web site to learn more.
USA.gov is the U.S. Government's official Web portal to all Federal, state and local government Web resources and services.
Facebook
NWS on Facebook

Important Change Regarding the AAWU Web Presence

 

Over the last several months, the AAWU has been working to navigate its webpages to a nationally supported server. Security, as well as other needs, have necessitated the change.  In the process, we have made an effort to enhance the functionality of our website, as well as some of our products. As of June 20, 2017, aawu.arh.noaa.gov will be discontinued. The new AAWU web address is weather.gov/aawu. It is now live and will run in-parallel with the old site until it is discontinued. Please send any feedback or questions regarding the new webpages to nws.ar.aawu.webauthors@noaa.gov.  Thank you for your patience during this time of transition.
AAWU Home :: Display TAF Add Bookmark
TAF PASI 240520Z 2406/2506 30018KT P6SM OVC035
     FM240800 30012KT P6SM OVC025
     FM241400 31006KT P6SM OVC030
     FM242100 27009KT P6SM BKN030 BKN120=

METAR PASI 240153Z 31017KT 10SM SCT028 BKN035 11/06 A3006= PASI 240200Z 31019G24KT 10SM BKN026 OVC035 11/06 A3006= SPECI PASI 240200Z 31019G24KT 10SM BKN026 OVC035 11/06 A3006 RMK AO2 T01060056= METAR PASI 240253Z 31020KT 10SM BKN028 OVC036 09/06 A3008= PASI 240305Z 31017KT 10SM SCT028 OVC035 09/06 A3008= SPECI PASI 240305Z 31017KT 10SM SCT028 OVC035 09/06 A3008 RMK AO2 T00940056= PASI 240328Z 32014KT 10SM BKN029 OVC036 09/06 A3009= SPECI PASI 240328Z 32014KT 10SM BKN029 OVC036 09/06 A3009 RMK AO2 T00940056= METAR PASI 240353Z 30013KT 10SM SCT029 OVC038 09/06 A3010= PASI 240401Z 31013KT 10SM BKN029 OVC038 09/06 A3010= SPECI PASI 240401Z 31013KT 10SM BKN029 OVC038 09/06 A3010 RMK AO2 T00940056= PASI 240416Z 31013KT 10SM SCT029 OVC038 09/06 A3010= SPECI PASI 240416Z 31013KT 10SM SCT029 OVC038 09/06 A3010 RMK AO2 T00940061= PASI 240441Z 31015KT 10SM BKN028 OVC036 09/06 A3011= SPECI PASI 240441Z 31015KT 10SM BKN028 OVC036 09/06 A3011 RMK AO2 T00940056= METAR PASI 240453Z 30017KT 10SM BKN031 OVC038 09/06 A3012= METAR PASI 240553Z 30016KT 10SM BKN029 OVC036 09/05 A3015= METAR PASI 240653Z 30011KT 10SM OVC028 09/06 A3017=
 Alaska TAF Map

NOAA's National Weather Service
Alaska Aviation Weather Unit
6930 Sand Lake Road
Anchorage, AK 99502-1845
Disclaimer
Credits
Glossary
Privacy Policy
About Us
Career Opportunities
Contact AAWU Internet Services Site last modified: April, 17th 2012